Time;durP1;ratioP1;P1;durP2;ratioP2;P2;SDS_P1;SDS_P2;PMS_P1;PMS_P2;Temp;Humidity;BMP_temperature;BMP_pressure;BME280_temperature;BME280_humidity;BME280_pressure;Samples;Min_cycle;Max_cycle;Signal;HPM_P1;HPM_P2
2021/01/08 00:02:56;;;;;;;47.40;20.33;;;;;;;0.27;86.63;98746.73;4383771;80;21133;-85
2021/01/08 00:08:58;;;;;;;53.40;20.62;;;;;;;0.29;87.15;98749.34;4382567;80;21187;-87
2021/01/08 00:14:59;;;;;;;55.52;21.65;;;;;;;0.21;86.62;98747.96;4347741;80;21671;-86
2021/01/08 00:21:01;;;;;;;54.15;22.20;;;;;;;-0.03;86.54;98720.91;4339237;80;21513;-86
2021/01/08 00:27:04;;;;;;;53.35;20.27;;;;;;;-0.03;86.54;98720.91;4354360;80;22517;-86
2021/01/08 00:33:06;;;;;;;58.80;22.30;;;;;;;0.10;86.81;98743.42;4349107;80;21698;-86
2021/01/08 00:39:08;;;;;;;52.80;21.85;;;;;;;0.03;87.00;98738.27;4352302;80;21727;-86
2021/01/08 00:45:11;;;;;;;37.03;16.20;;;;;;;0.09;87.58;98743.20;4341959;80;21178;-85
2021/01/08 00:51:12;;;;;;;46.73;18.75;;;;;;;0.15;87.52;98739.80;4356465;80;22271;-86
2021/01/08 00:57:15;;;;;;;42.67;16.62;;;;;;;0.15;87.52;98739.80;4350083;80;21210;-87
2021/01/08 01:03:16;;;;;;;39.27;17.55;;;;;;;0.13;86.92;98750.87;4343955;80;21155;-87
2021/01/08 01:09:18;;;;;;;38.95;17.32;;;;;;;0.13;86.92;98750.87;4340419;80;21492;-86
2021/01/08 01:15:24;;;;;;;31.80;13.25;;;;;;;0.12;86.70;98753.34;4349231;80;21627;-85
2021/01/08 01:21:27;;;;;;;29.72;13.55;;;;;;;0.14;86.67;98757.06;4321074;80;21151;-86
2021/01/08 01:27:28;;;;;;;27.55;12.13;;;;;;;0.11;86.47;98753.08;4344574;80;21597;-86
2021/01/08 01:33:30;;;;;;;29.57;13.60;;;;;;;0.10;86.19;98750.70;4343119;80;21177;-86
2021/01/08 01:39:32;;;;;;;26.62;11.08;;;;;;;0.13;87.00;98748.73;4345564;80;21455;-85
2021/01/08 01:45:34;;;;;;;24.95;11.97;;;;;;;0.21;86.74;98742.58;4381300;80;21172;-85
2021/01/08 01:51:36;;;;;;;24.98;10.58;;;;;;;0.20;86.45;98739.66;4381484;80;21625;-86
2021/01/08 01:57:37;;;;;;;22.60;11.28;;;;;;;0.21;86.66;98740.69;4387175;80;21133;-85
2021/01/08 02:03:49;;;;;;;24.77;10.85;;;;;;;0.23;86.63;98735.79;4345947;80;21643;-85
2021/01/08 02:09:52;;;;;;;25.80;12.03;;;;;;;0.20;86.43;98721.62;4355142;80;21615;-86
2021/01/08 02:15:55;;;;;;;23.40;11.00;;;;;;;0.16;86.39;98719.30;4362152;80;21431;-85
2021/01/08 02:22:04;;;;;;;22.45;11.12;;;;;;;0.16;86.32;98711.79;4386796;80;21123;-85
2021/01/08 02:28:21;;;;;;;26.10;11.45;;;;;;;0.18;86.50;98717.09;4362891;80;21185;-85
2021/01/08 02:34:23;;;;;;;22.32;10.88;;;;;;;0.11;86.36;98709.24;4383895;80;21605;-85
2021/01/08 02:40:25;;;;;;;25.70;11.70;;;;;;;0.06;86.61;98708.03;4381523;80;21596;-86
2021/01/08 02:46:27;;;;;;;25.27;10.93;;;;;;;0.08;86.83;98709.88;4316338;81;21157;-86
2021/01/08 02:52:29;;;;;;;25.48;11.25;;;;;;;0.12;86.84;98707.58;4391604;80;21103;-85
2021/01/08 02:58:32;;;;;;;24.32;12.03;;;;;;;0.03;86.30;98701.39;4396379;80;21162;-85
2021/01/08 03:04:34;;;;;;;25.32;12.10;;;;;;;-0.02;86.57;98702.88;4404247;79;21186;-86
2021/01/08 03:10:36;;;;;;;32.80;13.43;;;;;;;-0.02;86.57;98702.88;4380877;80;21587;-85
2021/01/08 03:16:37;;;;;;;29.92;13.70;;;;;;;0.03;86.41;98700.05;4384252;80;21168;-86
2021/01/08 03:22:39;;;;;;;49.43;20.93;;;;;;;-0.01;86.19;98705.25;4383979;80;21142;-85
2021/01/08 03:28:41;;;;;;;28.23;14.27;;;;;;;-0.04;86.28;98707.77;4385356;80;21194;-85
2021/01/08 03:34:42;;;;;;;33.80;14.47;;;;;;;-0.06;86.22;98705.94;4384056;80;21177;-85
2021/01/08 03:40:43;;;;;;;30.23;15.15;;;;;;;0.00;86.86;98707.41;4379135;80;21202;-85
2021/01/08 03:46:45;;;;;;;27.03;13.80;;;;;;;0.00;86.79;98712.21;4385859;80;21129;-85
2021/01/08 03:52:54;;;;;;;33.55;16.12;;;;;;;0.09;87.00;98718.17;4385179;80;21154;-85
2021/01/08 03:58:55;;;;;;;34.55;15.13;;;;;;;0.02;86.65;98717.86;4378034;80;21188;-85
2021/01/08 04:04:57;;;;;;;33.05;14.07;;;;;;;-0.04;86.79;98713.16;4386080;80;21176;-86
2021/01/08 04:10:58;;;;;;;34.07;14.93;;;;;;;0.00;86.94;98710.09;4382028;80;21154;-86
2021/01/08 04:17:02;;;;;;;42.53;17.23;;;;;;;0.04;86.95;98713.73;4387645;80;21162;-85
2021/01/08 04:23:03;;;;;;;34.23;15.60;;;;;;;0.01;86.81;98706.29;4382190;80;21893;-85
2021/01/08 04:29:05;;;;;;;37.40;16.45;;;;;;;0.05;87.37;98707.23;4389393;80;21185;-86
2021/01/08 04:35:08;;;;;;;34.78;15.18;;;;;;;0.11;86.97;98700.59;4385968;80;22185;-85
2021/01/08 04:41:10;;;;;;;43.15;18.17;;;;;;;0.10;86.69;98702.25;4385678;80;21436;-86
2021/01/08 04:47:16;;;;;;;48.90;19.12;;;;;;;0.07;86.92;98712.30;4379498;80;21343;-85
2021/01/08 04:53:18;;;;;;;35.83;16.10;;;;;;;0.13;87.21;98713.73;4395514;80;21575;-85
2021/01/08 04:59:24;;;;;;;37.13;15.98;;;;;;;0.19;86.99;98709.81;4395529;80;21665;-85
2021/01/08 05:05:26;;;;;;;34.67;16.17;;;;;;;0.17;87.09;98705.30;4395604;80;21204;-85
2021/01/08 05:11:30;;;;;;;35.00;14.63;;;;;;;0.19;86.95;98706.55;4380577;81;21129;-85
2021/01/08 05:17:32;;;;;;;31.65;15.48;;;;;;;0.17;87.06;98707.98;4345838;80;21163;-85
2021/01/08 05:23:34;;;;;;;32.48;15.08;;;;;;;0.13;87.12;98703.77;4348173;80;21747;-85
2021/01/08 05:29:36;;;;;;;30.05;14.25;;;;;;;0.13;86.98;98705.12;4346565;80;21123;-86
2021/01/08 05:35:37;;;;;;;31.57;14.10;;;;;;;0.14;87.20;98707.27;4343223;80;21154;-85
2021/01/08 05:41:41;;;;;;;23.75;11.45;;;;;;;0.15;87.29;98708.84;4345979;80;21168;-86
2021/01/08 05:47:43;;;;;;;20.45;11.35;;;;;;;0.13;87.40;98708.35;4352338;81;21337;-87
2021/01/08 05:53:51;;;;;;;25.33;11.60;;;;;;;0.12;87.27;98707.58;4341283;81;21163;-86
2021/01/08 05:59:52;;;;;;;21.73;11.23;;;;;;;0.15;87.46;98715.03;4339422;80;21257;-86
2021/01/08 06:06:02;;;;;;;22.77;11.13;;;;;;;0.13;87.19;98711.84;4341861;80;21153;-86
2021/01/08 06:12:04;;;;;;;22.57;11.60;;;;;;;0.20;87.61;98720.81;4356472;81;21200;-87
2021/01/08 06:18:06;;;;;;;25.03;11.37;;;;;;;0.19;87.37;98715.97;4388081;80;21189;-87
2021/01/08 06:24:26;;;;;;;24.50;11.00;;;;;;;0.10;87.43;98708.98;4380965;80;21149;-87
2021/01/08 06:30:28;;;;;;;24.87;12.20;;;;;;;0.09;87.30;98712.79;4384502;80;21312;-86
2021/01/08 06:36:32;;;;;;;27.07;13.38;;;;;;;0.20;87.00;98718.13;4383065;80;21173;-86
2021/01/08 06:42:46;;;;;;;22.85;12.70;;;;;;;0.20;87.00;98718.13;4387721;80;21184;-88
2021/01/08 06:48:55;;;;;;;29.30;16.35;;;;;;;0.09;86.86;98710.09;4390574;80;21320;-86
2021/01/08 06:54:59;;;;;;;98.00;34.33;;;;;;;-0.06;86.73;98721.54;4383546;81;21602;-87
2021/01/08 07:01:02;;;;;;;43.35;20.10;;;;;;;-0.07;86.96;98722.66;4382893;80;21196;-87
2021/01/08 07:07:08;;;;;;;45.35;20.35;;;;;;;-0.01;87.17;98724.09;4381932;80;21198;-87
2021/01/08 07:13:09;;;;;;;38.17;17.13;;;;;;;-0.07;87.00;98723.20;4369408;80;21307;-87
2021/01/08 07:19:13;;;;;;;33.48;16.57;;;;;;;-0.04;87.39;98739.52;4347533;81;21155;-87
2021/01/08 07:25:16;;;;;;;30.03;15.77;;;;;;;0.08;87.23;98732.17;4347524;80;21153;-87
2021/01/08 07:31:33;;;;;;;36.75;17.67;;;;;;;0.10;87.10;98734.01;4330588;80;21572;-87
2021/01/08 07:37:58;;;;;;;29.87;16.30;;;;;;;0.16;87.23;98741.41;4346817;80;21168;-87
2021/01/08 07:44:01;;;;;;;24.97;14.97;;;;;;;0.13;87.15;98746.84;4344381;80;21134;-87
2021/01/08 07:50:12;;;;;;;28.80;14.27;;;;;;;0.11;87.41;98750.39;4349468;80;21165;-87
2021/01/08 07:56:25;;;;;;;28.60;15.40;;;;;;;0.15;87.64;98751.91;4352921;80;21169;-86
2021/01/08 08:02:36;;;;;;;27.55;14.50;;;;;;;0.19;87.72;98761.73;4348368;80;21886;-86
2021/01/08 08:15:00;;;;;;;39.55;23.38;;;;;;;0.41;88.26;98767.02;4389566;78;28277;-86
2021/01/08 08:21:10;;;;;;;60.05;29.30;;;;;;;0.58;87.69;98774.34;4391558;79;21121;-87
2021/01/08 08:27:16;;;;;;;51.80;27.02;;;;;;;0.64;87.84;98776.58;4392147;79;21613;-87
2021/01/08 08:33:20;;;;;;;36.55;19.67;;;;;;;0.71;87.78;98778.78;4395124;79;21157;-87
2021/01/08 08:39:22;;;;;;;55.05;23.10;;;;;;;0.68;87.81;98781.56;4395101;79;21309;-87
2021/01/08 08:45:31;;;;;;;43.13;22.93;;;;;;;0.72;87.82;98785.78;4392313;79;21152;-87
2021/01/08 08:51:34;;;;;;;28.00;15.65;;;;;;;0.78;87.27;98773.19;4393580;79;21125;-88
2021/01/08 08:57:36;;;;;;;27.75;13.28;;;;;;;0.97;86.15;98776.34;4391893;79;21181;-87
2021/01/08 09:03:37;;;;;;;20.75;12.35;;;;;;;1.07;85.80;98782.77;4390688;79;21736;-89
2021/01/08 09:09:43;;;;;;;23.55;12.78;;;;;;;1.17;84.26;98780.31;4389238;79;21250;-88
2021/01/08 09:16:13;;;;;;;30.97;13.25;;;;;;;1.24;84.54;98783.30;4364736;80;21131;-87
2021/01/08 09:22:16;;;;;;;25.32;13.62;;;;;;;1.31;85.03;98778.23;4358651;80;21161;-89
2021/01/08 09:28:17;;;;;;;23.77;12.60;;;;;;;1.38;84.73;98774.48;4357509;80;21115;-89
2021/01/08 09:34:20;;;;;;;25.27;13.45;;;;;;;1.42;82.69;98778.14;4359947;80;21174;-88
2021/01/08 09:40:21;;;;;;;25.48;13.40;;;;;;;1.50;83.74;98780.03;4361672;80;21649;-88
2021/01/08 09:46:23;;;;;;;21.62;10.95;;;;;;;1.58;82.78;98770.55;4370189;80;21143;-88
2021/01/08 09:52:28;;;;;;;24.40;13.20;;;;;;;1.61;79.27;98773.95;4364158;80;21288;-88
2021/01/08 09:58:30;;;;;;;22.73;13.43;;;;;;;1.62;79.45;98777.45;4365467;80;21155;-88
2021/01/08 10:04:34;;;;;;;26.40;14.20;;;;;;;1.64;80.59;98769.84;4361184;80;22042;-89
2021/01/08 10:10:39;;;;;;;27.50;13.98;;;;;;;1.68;79.94;98768.06;4365510;79;21204;-89
2021/01/08 10:16:41;;;;;;;26.75;13.25;;;;;;;1.76;80.60;98769.15;4390323;79;21136;-88
2021/01/08 10:22:51;;;;;;;24.52;12.47;;;;;;;1.81;79.87;98775.18;4390625;79;21176;-88
2021/01/08 10:28:55;;;;;;;25.50;13.30;;;;;;;1.89;80.03;98762.22;4390621;79;21161;-88
2021/01/08 10:34:57;;;;;;;19.17;9.28;;;;;;;1.98;80.82;98761.61;4388634;79;21172;-88
2021/01/08 10:40:59;;;;;;;17.48;9.40;;;;;;;2.05;80.00;98754.36;4389713;79;21595;-89
2021/01/08 10:47:00;;;;;;;16.23;9.13;;;;;;;2.14;79.29;98751.86;4389747;79;21687;-88
2021/01/08 10:53:02;;;;;;;24.02;11.48;;;;;;;2.21;79.79;98739.20;4390738;79;21638;-88
2021/01/08 10:59:04;;;;;;;20.55;11.28;;;;;;;2.36;79.93;98734.58;4387946;79;21201;-88
2021/01/08 11:05:07;;;;;;;22.80;10.82;;;;;;;2.41;78.60;98733.04;4388819;79;21192;-88
2021/01/08 11:11:10;;;;;;;21.35;11.55;;;;;;;2.48;78.53;98733.30;4387571;79;21168;-88
2021/01/08 11:17:12;;;;;;;22.62;10.00;;;;;;;2.64;76.74;98735.11;4388440;79;21611;-88
2021/01/08 11:23:13;;;;;;;23.45;10.80;;;;;;;2.82;78.37;98730.34;4388882;79;21145;-89
2021/01/08 11:29:15;;;;;;;19.25;11.20;;;;;;;3.06;78.68;98720.44;4388703;79;21741;-89
2021/01/08 11:35:16;;;;;;;19.73;11.30;;;;;;;3.20;76.57;98720.14;4387174;79;21178;-87
2021/01/08 11:41:22;;;;;;;23.30;12.20;;;;;;;3.42;76.98;98717.61;4387654;79;21136;-88
2021/01/08 11:47:23;;;;;;;22.75;8.30;;;;;;;3.56;76.93;98714.03;4390864;79;21125;-88
2021/01/08 11:53:24;;;;;;;17.73;7.92;;;;;;;3.45;73.04;98717.74;4389152;79;21760;-87
2021/01/08 11:59:26;;;;;;;15.75;7.75;;;;;;;3.21;74.22;98714.41;4388831;79;21158;-87
2021/01/08 12:05:27;;;;;;;16.12;7.72;;;;;;;3.03;74.38;98717.05;4391933;79;21601;-90
2021/01/08 12:11:29;;;;;;;16.37;7.95;;;;;;;3.03;70.08;98708.14;4389600;79;21204;-87
2021/01/08 12:17:31;;;;;;;15.28;7.58;;;;;;;3.00;73.86;98706.10;4387842;79;21149;-89
2021/01/08 12:23:33;;;;;;;16.07;8.00;;;;;;;2.98;73.99;98706.44;4394977;79;21610;-88
2021/01/08 12:29:35;;;;;;;16.05;7.47;;;;;;;3.05;73.72;98707.25;4393358;79;21160;-88
2021/01/08 12:35:36;;;;;;;16.12;8.23;;;;;;;3.14;72.94;98697.14;4390559;79;21575;-87
2021/01/08 12:41:38;;;;;;;18.07;8.48;;;;;;;3.07;72.37;98704.98;4382957;79;21182;-87
2021/01/08 12:47:39;;;;;;;13.58;7.53;;;;;;;2.97;73.46;98708.13;4395434;80;21152;-87
2021/01/08 12:53:41;;;;;;;16.17;8.38;;;;;;;2.94;73.87;98706.08;4389508;79;21137;-87
2021/01/08 12:59:49;;;;;;;21.95;10.75;;;;;;;2.89;73.33;98700.88;4393063;79;21647;-86
2021/01/08 13:05:50;;;;;;;23.75;10.00;;;;;;;2.92;73.31;98695.59;4388208;80;21186;-89
2021/01/08 13:11:52;;;;;;;20.32;9.18;;;;;;;3.00;73.30;98699.34;4384773;79;21172;-87
2021/01/08 13:17:53;;;;;;;21.73;10.48;;;;;;;3.04;72.46;98698.34;4384209;79;21583;-89
2021/01/08 13:23:55;;;;;;;16.95;6.78;;;;;;;3.03;73.30;98704.88;4390186;79;21180;-88
2021/01/08 13:29:56;;;;;;;14.58;7.22;;;;;;;2.91;71.99;98707.52;4389648;79;21186;-88
2021/01/08 13:35:57;;;;;;;13.03;5.90;;;;;;;2.82;72.08;98708.16;4390945;79;21154;-89
2021/01/08 13:42:05;;;;;;;22.60;6.55;;;;;;;2.75;71.38;98709.27;4404232;79;21307;-88
2021/01/08 13:48:07;;;;;;;12.35;6.03;;;;;;;2.73;71.17;98721.52;4385914;79;21160;-88
2021/01/08 13:54:09;;;;;;;13.78;6.12;;;;;;;2.62;70.95;98727.87;4371089;79;21630;-87
2021/01/08 14:00:12;;;;;;;18.17;6.40;;;;;;;2.47;70.95;98727.13;4388262;79;21185;-87
2021/01/08 14:06:22;;;;;;;15.32;6.90;;;;;;;2.35;70.98;98724.90;4398711;79;21142;-88
2021/01/08 14:12:24;;;;;;;13.98;7.12;;;;;;;2.25;71.10;98732.02;4383177;79;21185;-88
2021/01/08 14:18:25;;;;;;;17.05;7.85;;;;;;;2.17;71.26;98735.55;4349509;80;21146;-88
2021/01/08 14:24:27;;;;;;;16.45;6.67;;;;;;;2.13;71.54;98730.58;4369578;81;21642;-87
2021/01/08 14:30:28;;;;;;;15.20;6.85;;;;;;;2.15;72.06;98732.38;4366475;80;21606;-87
2021/01/08 14:36:32;;;;;;;18.90;8.80;;;;;;;2.17;71.42;98735.00;4190207;84;21178;-86
2021/01/08 14:42:35;;;;;;;26.17;11.73;;;;;;;2.18;71.28;98737.13;4195799;84;21197;-85
2021/01/08 14:48:39;;;;;;;27.62;12.45;;;;;;;2.24;71.43;98729.86;4257701;82;21297;-86
2021/01/08 14:54:41;;;;;;;41.55;19.50;;;;;;;2.20;71.39;98734.90;4178306;84;21201;-87
2021/01/08 15:00:42;;;;;;;45.45;18.17;;;;;;;2.10;71.29;98736.64;4224224;84;21297;-88
2021/01/08 15:06:44;;;;;;;68.70;26.95;;;;;;;2.02;71.34;98732.84;4227523;84;21155;-87
2021/01/08 15:12:48;;;;;;;85.77;32.58;;;;;;;1.90;71.42;98733.30;4273076;82;21608;-87
2021/01/08 15:18:49;;;;;;;111.60;38.73;;;;;;;1.75;71.61;98734.64;4311972;82;21155;-88
2021/01/08 15:24:53;;;;;;;84.25;31.48;;;;;;;1.55;72.08;98735.35;4315620;82;21718;-87
2021/01/08 15:30:57;;;;;;;59.88;25.95;;;;;;;1.35;71.94;98734.12;4299335;82;21153;-86
2021/01/08 15:37:01;;;;;;;82.42;34.00;;;;;;;1.06;72.11;98739.96;4310230;82;21176;-87
2021/01/08 15:43:04;;;;;;;95.77;40.03;;;;;;;0.82;72.58;98743.14;4313296;82;21585;-87
2021/01/08 15:49:06;;;;;;;104.27;40.85;;;;;;;0.59;72.63;98751.69;4287251;82;21161;-87
2021/01/08 15:55:10;;;;;;;115.40;44.35;;;;;;;0.03;73.17;98753.30;4297548;82;21141;-87
2021/01/08 16:01:12;;;;;;;111.17;42.08;;;;;;;-0.27;73.85;98728.57;4274565;82;21178;-86
2021/01/08 16:07:13;;;;;;;119.95;43.50;;;;;;;-0.27;73.85;98728.57;4295990;82;21572;-87
2021/01/08 16:13:16;;;;;;;114.53;45.70;;;;;;;-0.27;73.63;98751.44;4277917;82;21200;-87
2021/01/08 16:19:18;;;;;;;98.92;43.52;;;;;;;-0.35;74.08;98748.72;4243506;84;21177;-87
2021/01/08 16:25:20;;;;;;;103.93;43.53;;;;;;;-0.39;74.08;98753.12;4245082;84;21200;-86
2021/01/08 16:31:22;;;;;;;129.67;50.43;;;;;;;-0.40;74.45;98763.10;4217454;82;21852;-85
2021/01/08 16:37:23;;;;;;;132.23;51.03;;;;;;;-0.47;74.26;98772.14;4202706;84;21176;-87
2021/01/08 16:43:25;;;;;;;156.83;61.00;;;;;;;-0.56;74.54;98774.00;4255974;84;21291;-87
2021/01/08 16:49:26;;;;;;;150.43;59.50;;;;;;;-0.57;75.18;98777.00;4255347;84;21207;-86
2021/01/08 16:55:28;;;;;;;96.23;39.53;;;;;;;-0.55;75.46;98776.92;4234055;84;21161;-87
2021/01/08 17:01:31;;;;;;;96.30;41.87;;;;;;;-0.62;76.27;98781.95;4225096;83;21192;-87
2021/01/08 17:14:59;;;;;;;83.97;35.63;;;;;;;-0.63;76.72;98784.41;4391089;79;23313;-86
2021/01/08 17:21:05;;;;;;;81.63;34.00;;;;;;;-0.73;76.03;98783.84;4309721;80;21197;-87
2021/01/08 17:27:08;;;;;;;87.33;36.42;;;;;;;-0.79;76.42;98787.22;4298762;80;21196;-86
2021/01/08 17:33:09;;;;;;;79.23;35.30;;;;;;;-0.82;76.72;98790.52;4347945;80;21219;-87
2021/01/08 17:39:11;;;;;;;72.20;30.13;;;;;;;-0.91;77.06;98800.96;4316973;80;21675;-88
2021/01/08 17:45:12;;;;;;;60.00;27.77;;;;;;;-0.99;76.61;98803.02;4291352;81;21224;-87
2021/01/08 17:51:14;;;;;;;59.70;25.67;;;;;;;-1.03;77.12;98812.77;4323487;81;21327;-88
2021/01/08 17:57:16;;;;;;;56.17;26.40;;;;;;;-1.04;76.75;98815.23;4335407;81;21212;-87
2021/01/08 18:03:18;;;;;;;89.57;28.63;;;;;;;-1.05;76.80;98815.77;4309467;81;21218;-86
2021/01/08 18:09:19;;;;;;;73.93;29.50;;;;;;;-1.07;76.84;98816.64;4337664;80;21189;-86
2021/01/08 18:15:21;;;;;;;92.43;34.97;;;;;;;-1.07;76.87;98820.67;4316968;81;21817;-87
2021/01/08 18:21:27;;;;;;;98.70;40.77;;;;;;;-1.17;77.43;98818.20;4288024;82;21212;-86
2021/01/08 18:27:28;;;;;;;68.35;32.23;;;;;;;-1.25;77.59;98820.25;4288378;81;21202;-87
2021/01/08 18:33:30;;;;;;;100.93;43.20;;;;;;;-1.31;78.49;98829.52;4323450;81;21927;-86
2021/01/08 18:39:34;;;;;;;148.57;57.87;;;;;;;-1.26;78.33;98833.98;4307752;81;21259;-86
2021/01/08 18:45:35;;;;;;;118.27;49.50;;;;;;;-1.31;79.24;98835.43;4333549;80;21777;-86
2021/01/08 18:51:40;;;;;;;114.63;47.43;;;;;;;-1.32;78.21;98834.66;4304380;80;21202;-86
2021/01/08 18:57:42;;;;;;;118.97;50.53;;;;;;;-1.34;78.67;98838.72;4318949;81;21188;-86
2021/01/08 19:03:44;;;;;;;114.73;49.73;;;;;;;-1.22;79.66;98840.36;4327970;81;21404;-85
2021/01/08 19:09:46;;;;;;;133.53;55.77;;;;;;;-1.06;79.99;98850.45;4306675;80;21202;-86
2021/01/08 19:15:48;;;;;;;123.97;52.73;;;;;;;-0.95;80.05;98855.85;4350510;81;21217;-88
2021/01/08 19:21:59;;;;;;;135.63;57.43;;;;;;;-0.81;80.04;98854.45;4359933;80;21198;-87
2021/01/08 19:28:01;;;;;;;136.77;57.67;;;;;;;-0.73;80.24;98849.16;4388356;80;21193;-86
2021/01/08 19:34:02;;;;;;;146.40;60.47;;;;;;;-0.71;79.26;98867.67;4383916;80;21185;-88
2021/01/08 19:40:06;;;;;;;124.17;53.60;;;;;;;-0.74;79.46;98863.70;4356378;80;21201;-87
2021/01/08 19:46:08;;;;;;;122.27;51.77;;;;;;;-0.68;80.38;98868.41;4376179;80;21513;-88
2021/01/08 19:52:09;;;;;;;124.87;54.80;;;;;;;-0.56;80.75;98868.64;4326208;81;21219;-86
2021/01/08 19:58:11;;;;;;;127.33;54.73;;;;;;;-0.48;80.21;98867.91;4359993;80;21930;-87
2021/01/08 20:04:13;;;;;;;121.97;52.30;;;;;;;-0.51;80.29;98868.53;4325624;80;21194;-86
2021/01/08 20:10:15;;;;;;;122.10;52.83;;;;;;;-0.50;80.03;98868.22;4310809;81;21198;-86
2021/01/08 20:16:17;;;;;;;127.43;54.27;;;;;;;-0.51;80.84;98866.64;4310403;81;21191;-86
2021/01/08 20:22:19;;;;;;;115.93;47.63;;;;;;;-0.40;80.71;98866.64;4345509;80;21202;-86
2021/01/08 20:28:20;;;;;;;117.00;49.80;;;;;;;-0.36;80.21;98871.64;4302899;81;21158;-87
2021/01/08 20:34:22;;;;;;;106.17;42.77;;;;;;;-0.36;80.77;98875.67;4337494;81;21244;-86
2021/01/08 20:40:23;;;;;;;107.83;44.47;;;;;;;-0.32;80.43;98875.86;4309752;81;21575;-87
2021/01/08 20:46:25;;;;;;;107.30;44.60;;;;;;;-0.30;80.69;98881.73;4324211;81;21247;-88
2021/01/08 20:52:26;;;;;;;101.20;42.00;;;;;;;-0.26;81.09;98888.89;4337611;81;21183;-87
2021/01/08 20:58:28;;;;;;;97.37;42.03;;;;;;;-0.18;80.82;98893.53;4294067;80;21185;-86
2021/01/08 21:04:30;;;;;;;93.13;41.10;;;;;;;-0.16;80.42;98899.38;4304832;81;21339;-87
2021/01/08 21:10:32;;;;;;;107.83;46.80;;;;;;;-0.16;80.77;98902.64;4346994;80;21202;-86
2021/01/08 21:16:33;;;;;;;167.87;71.13;;;;;;;-0.16;80.84;98913.41;4325537;81;21730;-86
2021/01/08 21:22:35;;;;;;;160.03;70.17;;;;;;;-0.24;80.56;98911.44;4313410;81;21615;-86
2021/01/08 21:28:36;;;;;;;171.55;70.97;;;;;;;-0.32;80.72;98920.24;4359002;80;21812;-86
2021/01/08 21:34:38;;;;;;;182.30;74.27;;;;;;;-0.30;80.93;98929.59;4291639;81;21131;-87
2021/01/08 21:40:39;;;;;;;169.07;71.33;;;;;;;-0.22;81.07;98934.81;4336360;80;21940;-87
2021/01/08 21:46:45;;;;;;;156.17;67.40;;;;;;;-0.15;80.93;98930.58;4332847;81;21334;-86
2021/01/08 21:52:46;;;;;;;164.73;67.17;;;;;;;-0.12;80.57;98943.42;4296150;81;21142;-86
2021/01/08 21:58:48;;;;;;;159.22;68.33;;;;;;;-0.10;80.96;98941.77;4299323;81;21664;-86
2021/01/08 22:04:49;;;;;;;218.52;87.47;;;;;;;-0.20;80.74;98948.19;4328484;80;21668;-86
2021/01/08 22:10:51;;;;;;;215.43;84.77;;;;;;;-0.21;80.64;98944.45;4324620;80;21722;-86
2021/01/08 22:16:55;;;;;;;253.60;93.37;;;;;;;-0.14;80.91;98944.81;4309411;81;21225;-87
2021/01/08 22:22:56;;;;;;;237.90;88.90;;;;;;;-0.10;81.03;98951.19;4295711;80;21190;-86
2021/01/08 22:28:58;;;;;;;173.43;69.20;;;;;;;-0.14;80.80;98960.95;4324813;81;21346;-88
2021/01/08 22:35:00;;;;;;;197.07;80.17;;;;;;;-0.23;81.03;98956.87;4284468;81;21219;-86
2021/01/08 22:41:03;;;;;;;173.77;72.97;;;;;;;-0.26;80.94;98953.98;4305300;82;21195;-86
2021/01/08 22:47:05;;;;;;;179.75;72.30;;;;;;;-0.18;81.38;98960.79;4313976;80;21622;-87
2021/01/08 22:53:07;;;;;;;203.80;75.03;;;;;;;-0.13;81.14;98963.91;4313449;81;21199;-86
2021/01/08 22:59:08;;;;;;;196.20;80.67;;;;;;;-0.26;81.08;98962.06;4290160;81;21311;-87
2021/01/08 23:05:11;;;;;;;165.63;70.97;;;;;;;-0.28;81.35;98968.28;4300429;81;21640;-86
2021/01/08 23:11:14;;;;;;;162.10;66.53;;;;;;;-0.18;81.95;98956.75;4345051;80;21234;-88
2021/01/08 23:17:16;;;;;;;173.50;74.67;;;;;;;-0.12;82.21;98962.80;4342801;81;21198;-86
2021/01/08 23:23:17;;;;;;;172.37;70.03;;;;;;;-0.10;82.06;98970.02;4303597;81;21207;-86
2021/01/08 23:29:19;;;;;;;180.00;72.60;;;;;;;-0.18;81.91;98972.90;4307536;80;21836;-86
2021/01/08 23:35:21;;;;;;;202.60;84.10;;;;;;;-0.30;81.78;98971.28;4353907;81;21687;-87
2021/01/08 23:41:23;;;;;;;205.43;85.37;;;;;;;-0.28;82.27;98975.01;4307207;81;21200;-87
2021/01/08 23:47:25;;;;;;;198.47;80.67;;;;;;;-0.25;82.40;98966.36;4296736;81;21207;-87
2021/01/08 23:53:26;;;;;;;168.00;69.60;;;;;;;-0.27;82.31;98970.67;4302040;82;21187;-86
2021/01/08 23:59:28;;;;;;;124.87;52.50;;;;;;;-0.33;82.55;98973.23;4335434;81;21786;-86
